Time;durP1;ratioP1;P1;durP2;ratioP2;P2;SDS_P1;SDS_P2;PMS_P1;PMS_P2;Temp;Humidity;BMP_temperature;BMP_pressure;BME280_temperature;BME280_humidity;BME280_pressure;Samples;Min_cycle;Max_cycle;Signal;HPM_P1;HPM_P2
2021/11/22 00:01:42;;;;;;;37.70;21.60;;;;;;;5.68;92.56;99833.27;1695019;84;27340;-66
2021/11/22 00:04:10;;;;;;;43.42;22.62;;;;;;;5.68;92.53;99835.39;1695149;84;25460;-66
2021/11/22 00:06:37;;;;;;;42.62;21.95;;;;;;;5.67;92.57;99835.16;1694985;84;25653;-66
2021/11/22 00:09:04;;;;;;;43.05;22.02;;;;;;;5.68;92.55;99842.66;1694985;84;26491;-67
2021/11/22 00:11:32;;;;;;;41.35;22.62;;;;;;;5.67;92.55;99844.55;1695095;84;25598;-67
2021/11/22 00:13:59;;;;;;;38.02;21.93;;;;;;;5.66;92.56;99842.15;1695054;83;27915;-67
2021/11/22 00:16:26;;;;;;;39.67;22.93;;;;;;;5.65;92.55;99841.33;1694870;84;25780;-66
2021/11/22 00:18:55;;;;;;;50.83;25.70;;;;;;;5.64;92.48;99843.77;1695043;84;25613;-66
2021/11/22 00:21:22;;;;;;;41.53;23.57;;;;;;;5.64;92.44;99851.83;1695039;84;25934;-66
2021/11/22 00:23:49;;;;;;;46.55;24.43;;;;;;;5.64;92.41;99856.40;1695080;84;25599;-66
2021/11/22 00:26:16;;;;;;;44.30;23.15;;;;;;;5.63;92.29;99855.58;1674855;84;27414;-66
2021/11/22 00:28:43;;;;;;;39.78;23.35;;;;;;;5.62;92.21;99860.70;1694886;84;25429;-67
2021/11/22 00:31:09;;;;;;;40.73;22.42;;;;;;;5.61;92.23;99861.78;1695099;84;25422;-66
2021/11/22 00:33:36;;;;;;;41.58;21.70;;;;;;;5.61;92.31;99858.55;1695011;83;25975;-67
2021/11/22 00:36:04;;;;;;;41.45;21.68;;;;;;;5.61;92.18;99858.55;1694116;84;25640;-70
2021/11/22 00:38:31;;;;;;;38.78;21.82;;;;;;;5.62;92.20;99864.73;1670022;85;27937;-70
2021/11/22 00:40:57;;;;;;;39.92;22.07;;;;;;;5.64;92.31;99872.50;1670198;85;25643;-70
2021/11/22 00:43:25;;;;;;;43.45;23.00;;;;;;;5.62;92.37;99871.44;1670349;85;25521;-70
2021/11/22 00:45:54;;;;;;;39.08;21.60;;;;;;;5.63;92.48;99870.89;1670189;84;25922;-70
2021/11/22 00:48:22;;;;;;;40.17;22.62;;;;;;;5.61;92.46;99867.94;1670364;85;25475;-70
2021/11/22 00:50:52;;;;;;;40.45;22.48;;;;;;;5.62;92.52;99871.44;1670399;85;27345;-70
2021/11/22 00:53:20;;;;;;;41.40;22.35;;;;;;;5.61;92.56;99877.88;1670149;85;25631;-70
2021/11/22 00:55:46;;;;;;;44.08;22.15;;;;;;;5.61;92.57;99877.33;1670246;85;25433;-70
2021/11/22 00:58:14;;;;;;;42.85;21.90;;;;;;;5.61;92.62;99885.38;1670158;85;26039;-69
2021/11/22 01:00:41;;;;;;;42.48;22.50;;;;;;;5.61;92.72;99879.22;1670286;84;25576;-69
2021/11/22 01:03:09;;;;;;;37.35;22.17;;;;;;;5.61;92.70;99878.67;1670239;85;27428;-70
2021/11/22 01:05:35;;;;;;;43.83;22.17;;;;;;;5.61;92.73;99875.20;1670130;84;25696;-69
2021/11/22 01:08:04;;;;;;;41.77;23.42;;;;;;;5.60;92.71;99882.45;1670219;85;25416;-70
2021/11/22 01:10:32;;;;;;;38.17;21.37;;;;;;;5.60;92.64;99878.43;1670631;85;26842;-70
2021/11/22 01:13:00;;;;;;;35.88;19.40;;;;;;;5.59;92.56;99880.84;1649234;85;25618;-69
2021/11/22 01:15:27;;;;;;;40.33;21.45;;;;;;;5.58;92.49;99890.00;1670402;85;27403;-69
2021/11/22 01:17:54;;;;;;;38.85;19.57;;;;;;;5.58;92.46;99897.23;1670070;85;25801;-70
2021/11/22 01:20:31;;;;;;;39.88;19.73;;;;;;;5.56;92.34;99892.14;1670320;85;25616;-69
2021/11/22 01:23:05;;;;;;;37.03;18.90;;;;;;;5.55;92.39;99890.56;1670172;84;28090;-69
2021/11/22 01:25:34;;;;;;;39.03;20.08;;;;;;;5.55;92.38;99899.95;1670268;85;25470;-69
2021/11/22 01:28:01;;;;;;;39.27;19.73;;;;;;;5.52;92.37;99897.83;1670219;85;27353;-69
2021/11/22 01:30:28;;;;;;;34.25;18.25;;;;;;;5.50;92.37;99902.69;1670137;85;25481;-69
2021/11/22 01:32:56;;;;;;;34.88;18.67;;;;;;;5.48;92.38;99900.02;1670229;84;25593;-69
2021/11/22 01:35:23;;;;;;;33.88;19.27;;;;;;;5.48;92.43;99902.15;1648608;85;25833;-68
2021/11/22 01:37:51;;;;;;;32.25;18.50;;;;;;;5.47;92.47;99906.48;1670200;84;25488;-69
2021/11/22 01:40:22;;;;;;;36.05;18.75;;;;;;;5.48;92.53;99908.06;1670215;85;27336;-69
2021/11/22 01:42:51;;;;;;;42.25;20.02;;;;;;;5.46;92.61;99911.58;1670111;85;25570;-68
2021/11/22 01:45:20;;;;;;;39.45;19.12;;;;;;;5.46;92.68;99911.58;1670156;85;25618;-69
2021/11/22 01:47:47;;;;;;;35.50;20.48;;;;;;;5.47;92.76;99919.34;1670182;85;25664;-70
2021/11/22 01:50:18;;;;;;;37.08;19.02;;;;;;;5.48;92.82;99921.48;1670225;85;25448;-69
2021/11/22 01:52:48;;;;;;;36.13;18.92;;;;;;;5.48;92.83;99920.93;1670237;85;27357;-69
2021/11/22 01:55:18;;;;;;;36.70;20.37;;;;;;;5.50;92.92;99924.67;1670313;85;25620;-69
2021/11/22 01:57:47;;;;;;;38.53;22.55;;;;;;;5.51;92.87;99925.73;1648808;85;25494;-70
2021/11/22 02:00:33;;;;;;;36.33;20.20;;;;;;;5.51;92.85;99927.63;1670254;85;26594;-70
2021/11/22 02:03:03;;;;;;;35.85;18.82;;;;;;;5.51;92.80;99920.37;1670315;84;25590;-70
2021/11/22 02:05:30;;;;;;;39.38;19.95;;;;;;;5.53;92.69;99930.81;1670294;85;27924;-71
2021/11/22 02:07:57;;;;;;;35.60;19.73;;;;;;;5.53;92.79;99932.95;1670146;85;25511;-70
2021/11/22 02:10:26;;;;;;;35.88;20.02;;;;;;;5.54;92.82;99931.87;1670216;84;25459;-69
2021/11/22 02:12:56;;;;;;;35.13;19.25;;;;;;;5.55;92.83;99938.03;1670247;84;25673;-70
2021/11/22 02:15:23;;;;;;;36.90;20.88;;;;;;;5.55;92.78;99934.02;1670243;84;25426;-69
2021/11/22 02:17:53;;;;;;;40.45;19.77;;;;;;;5.55;92.80;99934.02;1670212;85;27321;-70
2021/11/22 02:20:24;;;;;;;46.05;22.42;;;;;;;5.55;92.75;99948.25;1670213;84;25697;-70
2021/11/22 02:22:54;;;;;;;51.20;23.45;;;;;;;5.54;92.80;99942.61;1648842;85;25579;-70
2021/11/22 02:25:24;;;;;;;55.28;25.85;;;;;;;5.55;92.83;99945.56;1670141;85;25944;-69
2021/11/22 02:27:51;;;;;;;57.95;25.15;;;;;;;5.54;92.73;99942.61;1670323;85;25436;-70
2021/11/22 02:30:24;;;;;;;47.40;22.87;;;;;;;5.54;92.71;99945.84;1670176;84;27325;-70
2021/11/22 02:32:50;;;;;;;45.67;23.47;;;;;;;5.54;92.68;99951.21;1670093;85;25493;-70
2021/11/22 02:35:20;;;;;;;50.70;22.82;;;;;;;5.53;92.70;99957.09;1670188;84;25463;-70
2021/11/22 02:37:47;;;;;;;50.88;23.50;;;;;;;5.53;92.81;99952.28;1670048;85;25916;-70
2021/11/22 02:40:15;;;;;;;39.20;21.82;;;;;;;5.52;92.80;99956.85;1670184;84;25474;-70
2021/11/22 02:42:44;;;;;;;42.85;22.13;;;;;;;5.53;92.83;99961.12;1670148;84;27333;-70
2021/11/22 02:45:14;;;;;;;;;;;;;;;5.53;92.80;99967.83;1672561;85;25457;-69
2021/11/22 02:47:42;;;;;;;37.50;20.92;;;;;;;5.53;92.83;99982.58;1670223;85;25409;-69
2021/11/22 02:50:11;;;;;;;40.67;21.00;;;;;;;5.52;92.99;99981.00;1670312;85;26053;-69
2021/11/22 02:52:43;;;;;;;43.30;22.60;;;;;;;5.53;93.00;99973.74;1670333;85;25637;-69
2021/11/22 02:55:13;;;;;;;42.98;21.85;;;;;;;5.52;92.79;99974.84;1670184;85;27343;-70
2021/11/22 02:57:41;;;;;;;40.43;21.40;;;;;;;5.53;92.81;99987.16;1670089;85;25431;-69
2021/11/22 03:00:14;;;;;;;40.12;21.15;;;;;;;5.51;92.67;99979.94;1670165;84;25594;-69
2021/11/22 03:02:42;;;;;;;38.23;20.80;;;;;;;5.50;92.43;99983.69;1667213;85;25978;-69
2021/11/22 03:05:10;;;;;;;45.77;22.80;;;;;;;5.49;92.45;99988.81;1667482;86;25456;-68
2021/11/22 03:07:36;;;;;;;40.33;19.67;;;;;;;5.47;92.46;99995.01;1667236;86;28074;-68
2021/11/22 03:10:07;;;;;;;39.18;20.65;;;;;;;5.43;92.46;99994.23;1667204;86;25454;-68
2021/11/22 03:12:34;;;;;;;40.63;20.62;;;;;;;5.43;92.50;99996.09;1644668;86;26035;-68
2021/11/22 03:15:03;;;;;;;44.15;20.48;;;;;;;5.41;92.52;99995.58;1667213;86;26073;-68
2021/11/22 03:17:30;;;;;;;43.85;21.27;;;;;;;5.39;92.44;99997.19;1663809;86;25533;-69
2021/11/22 03:19:57;;;;;;;45.75;21.95;;;;;;;5.37;92.41;99999.91;1667223;86;27333;-68
2021/11/22 03:22:24;;;;;;;39.45;20.82;;;;;;;5.35;92.33;100000.19;1663655;86;25782;-68
2021/11/22 03:24:51;;;;;;;40.25;21.23;;;;;;;5.33;92.36;99999.67;1667283;86;25685;-70
2021/11/22 03:27:18;;;;;;;39.45;19.80;;;;;;;5.31;92.37;100000.50;1639626;86;25824;-71
2021/11/22 03:29:44;;;;;;;43.00;20.57;;;;;;;5.30;92.40;100010.17;1667306;86;25621;-71
2021/11/22 03:32:11;;;;;;;40.10;20.00;;;;;;;5.29;92.49;100005.88;1667276;86;28218;-69
2021/11/22 03:34:37;;;;;;;35.90;19.20;;;;;;;5.28;92.47;100018.49;1639873;86;25595;-69
2021/11/22 03:37:05;;;;;;;34.50;19.17;;;;;;;5.25;92.52;100012.34;1631309;86;25482;-69
2021/11/22 03:39:33;;;;;;;33.83;18.90;;;;;;;5.23;92.58;100016.64;1630604;87;25942;-70
2021/11/22 03:42:03;;;;;;;36.60;18.42;;;;;;;5.23;92.70;100025.23;1630606;87;25507;-69
2021/11/22 03:44:32;;;;;;;37.15;18.60;;;;;;;5.24;92.82;100028.98;1630621;87;27415;-69
2021/11/22 03:47:00;;;;;;;32.38;19.30;;;;;;;5.23;92.72;100038.09;1630553;88;25629;-69
2021/11/22 03:49:27;;;;;;;33.53;18.27;;;;;;;5.22;92.70;100037.82;1630536;86;25441;-70
2021/11/22 03:51:54;;;;;;;32.23;17.55;;;;;;;5.21;92.63;100038.92;1630569;88;26760;-69
2021/11/22 03:54:21;;;;;;;36.68;18.27;;;;;;;5.20;92.52;100038.64;1630511;88;25406;-69
2021/11/22 03:56:48;;;;;;;36.48;18.12;;;;;;;5.19;92.47;100038.41;1626877;88;27350;-70
2021/11/22 03:59:14;;;;;;;33.73;16.82;;;;;;;5.16;92.33;100039.47;1630461;88;25638;-70
2021/11/22 04:01:41;;;;;;;36.03;18.35;;;;;;;5.15;92.30;100052.09;1630534;88;25494;-70
2021/11/22 04:04:08;;;;;;;33.33;18.15;;;;;;;5.11;92.21;100048.38;1630564;88;26728;-70
2021/11/22 04:06:35;;;;;;;28.85;17.20;;;;;;;5.10;92.09;100056.69;1630523;88;25608;-70
2021/11/22 04:09:04;;;;;;;35.15;18.70;;;;;;;5.06;92.01;100055.11;1630647;88;27394;-69
2021/11/22 04:11:33;;;;;;;37.33;17.50;;;;;;;5.05;92.09;100058.86;1630688;88;25487;-69
2021/11/22 04:13:59;;;;;;;32.15;17.85;;;;;;;5.01;92.00;100060.50;1608374;88;25612;-69
2021/11/22 04:16:29;;;;;;;28.90;16.80;;;;;;;5.00;92.04;100065.59;1630668;88;26750;-69
2021/11/22 04:18:56;;;;;;;34.03;16.73;;;;;;;4.95;92.03;100069.09;1608363;88;25672;-69
2021/11/22 04:21:25;;;;;;;35.73;17.30;;;;;;;4.93;92.11;100077.16;1630655;88;27422;-69
2021/11/22 04:23:57;;;;;;;32.53;17.13;;;;;;;4.93;92.01;100086.54;1608460;88;25610;-69
2021/11/22 04:26:24;;;;;;;34.92;17.17;;;;;;;4.92;92.02;100087.09;1630644;88;25677;-69
2021/11/22 04:28:50;;;;;;;29.12;16.52;;;;;;;4.91;92.15;100085.48;1630645;88;25970;-69
2021/11/22 04:31:17;;;;;;;32.73;17.15;;;;;;;4.91;92.33;100087.36;1630688;87;25621;-69
2021/11/22 04:33:44;;;;;;;34.80;17.48;;;;;;;4.89;92.45;100084.95;1630702;88;27345;-70
2021/11/22 04:36:11;;;;;;;35.03;16.73;;;;;;;4.91;92.44;100094.86;1630532;88;27105;-70
2021/11/22 04:38:38;;;;;;;32.83;17.27;;;;;;;4.91;92.59;100100.77;1630585;86;25438;-70
2021/11/22 04:41:06;;;;;;;29.87;16.85;;;;;;;4.93;92.70;100106.64;1674851;85;26001;-70
2021/11/22 04:43:33;;;;;;;33.20;16.42;;;;;;;4.94;92.83;100110.39;1674870;85;25429;-70
2021/11/22 04:46:00;;;;;;;34.25;17.20;;;;;;;4.93;92.89;100108.78;1674825;85;27345;-70
2021/11/22 04:48:26;;;;;;;34.85;16.90;;;;;;;4.93;92.85;100108.78;1674809;85;25579;-70
2021/11/22 04:50:54;;;;;;;34.65;17.27;;;;;;;4.92;92.84;100112.55;1674874;85;25550;-70
2021/11/22 04:53:20;;;;;;;34.67;17.65;;;;;;;4.92;92.81;100114.41;1674823;85;25998;-69
2021/11/22 04:55:47;;;;;;;32.28;16.27;;;;;;;4.91;92.84;100113.62;1674877;85;25469;-70
2021/11/22 04:58:14;;;;;;;36.83;17.20;;;;;;;4.91;92.89;100118.19;1674908;85;27348;-70
2021/11/22 05:00:40;;;;;;;35.60;17.65;;;;;;;4.91;92.87;100117.64;1674766;85;25754;-70
2021/11/22 05:03:08;;;;;;;29.67;16.50;;;;;;;4.91;92.84;100116.84;1674863;85;25478;-70
2021/11/22 05:05:35;;;;;;;27.82;15.65;;;;;;;4.90;92.79;100115.23;1674810;85;25878;-70
2021/11/22 05:08:05;;;;;;;30.95;16.40;;;;;;;4.88;92.76;100118.19;1674863;84;25602;-71
2021/11/22 05:10:31;;;;;;;30.27;16.05;;;;;;;4.88;92.77;100114.16;1674592;85;27446;-70
2021/11/22 05:12:57;;;;;;;27.17;16.45;;;;;;;4.86;92.76;100119.00;1674848;85;25555;-70
2021/11/22 05:15:24;;;;;;;30.55;16.40;;;;;;;4.85;92.77;100122.23;1674915;84;25618;-70
2021/11/22 05:17:50;;;;;;;31.05;16.20;;;;;;;4.85;92.82;100124.09;1674889;85;25945;-70
2021/11/22 05:20:17;;;;;;;30.17;16.35;;;;;;;4.85;92.84;100128.11;1655222;85;25522;-70
2021/11/22 05:22:43;;;;;;;26.70;15.55;;;;;;;4.84;92.96;100135.90;1674910;85;27362;-70
2021/11/22 05:25:10;;;;;;;30.30;15.72;;;;;;;4.83;92.98;100132.95;1674830;85;25469;-70
2021/11/22 05:27:37;;;;;;;25.88;15.70;;;;;;;4.83;93.04;100139.09;1674916;84;25513;-70
2021/11/22 05:30:05;;;;;;;26.70;15.25;;;;;;;4.83;93.05;100143.66;1674903;85;26027;-70
2021/11/22 05:32:31;;;;;;;30.88;16.45;;;;;;;4.81;93.11;100145.28;1698314;84;25701;-70
2021/11/22 05:34:58;;;;;;;27.60;15.75;;;;;;;4.82;93.02;100148.23;1698368;84;27443;-70
2021/11/22 05:37:27;;;;;;;30.40;15.48;;;;;;;4.82;93.09;100150.91;1669050;84;25695;-70
2021/11/22 05:39:55;;;;;;;30.88;15.28;;;;;;;4.83;93.02;100154.38;1698537;84;25688;-70
2021/11/22 05:42:22;;;;;;;32.45;15.05;;;;;;;4.82;92.94;100154.14;1698294;84;25976;-70
2021/11/22 05:44:48;;;;;;;25.52;15.23;;;;;;;4.81;92.91;100153.31;1698434;84;25597;-70
2021/11/22 05:47:16;;;;;;;28.07;14.98;;;;;;;4.81;92.91;100161.91;1698318;84;27317;-70
2021/11/22 05:49:42;;;;;;;27.85;15.43;;;;;;;4.81;92.93;100164.03;1674566;84;25805;-70
2021/11/22 05:52:12;;;;;;;22.95;14.07;;;;;;;4.81;92.99;100169.94;1698347;84;25722;-68
2021/11/22 05:54:52;;;;;;;22.50;14.40;;;;;;;4.80;93.00;100174.51;1698494;84;25926;-68
2021/11/22 05:57:20;;;;;;;24.30;13.98;;;;;;;4.80;93.06;100174.51;1698464;84;25693;-70
2021/11/22 05:59:47;;;;;;;26.40;16.02;;;;;;;4.80;93.07;100179.87;1698376;84;27333;-70
2021/11/22 06:02:14;;;;;;;26.15;15.53;;;;;;;4.80;93.10;100183.89;1692457;84;25826;-70
2021/11/22 06:04:40;;;;;;;25.88;14.93;;;;;;;4.81;93.09;100195.40;1676054;84;25484;-70
2021/11/22 06:07:08;;;;;;;26.75;15.05;;;;;;;4.81;93.13;100195.40;1674826;85;26069;-70
2021/11/22 06:09:35;;;;;;;25.37;14.95;;;;;;;4.81;93.14;100192.17;1674851;85;25579;-70
2021/11/22 06:12:03;;;;;;;25.72;15.08;;;;;;;4.82;93.17;100197.81;1674770;85;27397;-70
2021/11/22 06:14:29;;;;;;;32.60;16.23;;;;;;;4.83;93.16;100202.63;1675100;85;25685;-70
2021/11/22 06:16:56;;;;;;;27.67;15.25;;;;;;;4.82;93.26;100200.49;1674787;85;25410;-70
2021/11/22 06:19:23;;;;;;;29.42;16.65;;;;;;;4.83;93.33;100207.44;1674752;84;25953;-70
2021/11/22 06:21:51;;;;;;;28.75;15.83;;;;;;;4.86;93.42;100208.23;1674818;84;25500;-70
2021/11/22 06:24:17;;;;;;;26.68;15.40;;;;;;;4.88;93.39;100213.87;1674790;85;27381;-69
2021/11/22 06:26:45;;;;;;;26.52;14.83;;;;;;;4.90;93.40;100215.73;1674694;85;25718;-69
2021/11/22 06:29:13;;;;;;;29.92;17.48;;;;;;;4.93;93.38;100223.24;1674745;85;25420;-70
2021/11/22 06:31:40;;;;;;;25.10;15.53;;;;;;;4.93;93.38;100229.94;1674730;85;25928;-70
2021/11/22 06:34:06;;;;;;;24.90;14.85;;;;;;;4.94;93.43;100232.88;1674801;85;25606;-70
2021/11/22 06:36:33;;;;;;;23.02;14.45;;;;;;;4.96;93.44;100234.77;1674777;85;27958;-70
2021/11/22 06:39:00;;;;;;;26.40;16.15;;;;;;;4.97;93.51;100241.20;1684745;84;25481;-70
2021/11/22 06:41:26;;;;;;;25.82;15.28;;;;;;;5.00;93.59;100244.65;1694974;84;25484;-70
2021/11/22 06:43:53;;;;;;;24.55;13.60;;;;;;;5.01;93.56;100247.61;1695005;84;26498;-69
2021/11/22 06:46:20;;;;;;;24.30;15.45;;;;;;;5.04;93.53;100250.30;1674923;84;25623;-70
2021/11/22 06:48:46;;;;;;;24.63;15.05;;;;;;;5.06;93.51;100249.48;1694866;84;27375;-70
2021/11/22 06:51:13;;;;;;;29.02;17.27;;;;;;;5.08;93.55;100248.66;1695473;84;25660;-70
2021/11/22 06:53:39;;;;;;;23.40;16.75;;;;;;;5.11;93.37;100254.00;1694995;84;25417;-71
2021/11/22 06:56:06;;;;;;;25.80;15.83;;;;;;;5.12;93.29;100255.07;1694970;84;25941;-68
2021/11/22 06:58:33;;;;;;;26.95;15.00;;;;;;;5.12;93.16;100252.94;1695037;84;25612;-69
2021/11/22 07:00:59;;;;;;;25.32;15.30;;;;;;;5.13;92.97;100252.67;1694820;84;26875;-69
2021/11/22 07:03:28;;;;;;;25.20;15.95;;;;;;;5.16;93.02;100258.01;1694902;84;25550;-69
2021/11/22 07:05:55;;;;;;;24.50;16.07;;;;;;;5.17;92.93;100264.98;1695257;84;25502;-69
2021/11/22 07:08:22;;;;;;;28.02;15.65;;;;;;;5.16;93.04;100262.85;1671123;84;25846;-68
2021/11/22 07:10:49;;;;;;;25.70;15.10;;;;;;;5.16;92.77;100277.59;1695025;83;25576;-69
2021/11/22 07:13:16;;;;;;;21.93;14.25;;;;;;;5.17;92.69;100285.89;1694977;84;27354;-69
2021/11/22 07:15:43;;;;;;;21.25;14.18;;;;;;;5.17;92.62;100291.80;1694978;83;25419;-69
2021/11/22 07:18:10;;;;;;;22.13;13.38;;;;;;;5.14;92.57;100290.48;1694932;84;25459;-69
2021/11/22 07:20:38;;;;;;;20.77;12.63;;;;;;;5.14;92.43;100296.36;1694982;84;25995;-69
2021/11/22 07:23:04;;;;;;;22.73;12.93;;;;;;;5.14;92.47;100305.75;1695063;84;25520;-70
2021/11/22 07:25:31;;;;;;;20.23;12.15;;;;;;;5.14;92.53;100303.89;1695135;84;27254;-69
2021/11/22 07:27:58;;;;;;;21.35;13.08;;;;;;;5.14;92.49;100301.20;1694939;84;25621;-70
2021/11/22 07:30:25;;;;;;;21.02;12.95;;;;;;;5.16;92.52;100305.75;1695042;84;25417;-69
2021/11/22 07:32:53;;;;;;;18.60;13.08;;;;;;;5.17;92.57;100304.66;1695083;83;26770;-70
2021/11/22 07:35:23;;;;;;;20.97;13.03;;;;;;;5.18;92.41;100308.96;1695285;83;25665;-70
2021/11/22 07:37:51;;;;;;;20.92;11.78;;;;;;;5.19;92.45;100307.08;1695617;83;28132;-69
2021/11/22 07:40:22;;;;;;;23.12;12.37;;;;;;;5.19;92.37;100308.42;1690007;83;25453;-69
2021/11/22 07:42:54;;;;;;;19.90;11.33;;;;;;;5.19;92.54;100309.75;1689725;84;25589;-68
2021/11/22 07:45:25;;;;;;;19.07;12.70;;;;;;;5.23;92.72;100310.84;1689747;84;25973;-69
2021/11/22 07:47:53;;;;;;;21.77;14.13;;;;;;;5.23;92.55;100312.97;1689809;84;25569;-69
2021/11/22 07:50:22;;;;;;;20.57;13.65;;;;;;;5.27;92.66;100313.77;1681300;84;27394;-70
2021/11/22 07:52:50;;;;;;;22.73;14.20;;;;;;;5.30;92.92;100312.69;1670314;85;25813;-70
2021/11/22 07:55:17;;;;;;;24.52;15.03;;;;;;;5.35;92.81;100317.24;1670260;85;25518;-70
2021/11/22 07:57:44;;;;;;;22.58;14.43;;;;;;;5.37;92.58;100319.11;1670212;84;25924;-70
2021/11/22 08:00:14;;;;;;;22.25;13.70;;;;;;;5.42;92.86;100322.56;1670286;85;25488;-69
2021/11/22 08:02:40;;;;;;;23.73;14.25;;;;;;;5.51;93.16;100332.73;1671983;84;27356;-69
2021/11/22 08:05:10;;;;;;;22.77;14.87;;;;;;;5.62;93.55;100332.97;1670527;85;25719;-69
2021/11/22 08:07:40;;;;;;;25.55;14.85;;;;;;;5.69;93.40;100336.70;1665041;86;25611;-68
2021/11/22 08:10:18;;;;;;;22.42;15.03;;;;;;;5.73;93.17;100343.91;1668477;86;26642;-68
2021/11/22 08:12:44;;;;;;;22.85;14.07;;;;;;;5.78;92.91;100343.09;1668386;86;25464;-69
2021/11/22 08:15:12;;;;;;;26.62;14.63;;;;;;;5.84;92.95;100350.58;1645746;86;27983;-69
2021/11/22 08:17:42;;;;;;;24.72;13.62;;;;;;;5.89;92.92;100354.06;1668287;86;25681;-68
2021/11/22 08:20:12;;;;;;;23.62;14.05;;;;;;;5.95;92.72;100365.56;1668293;86;25709;-68
2021/11/22 08:22:39;;;;;;;23.42;14.10;;;;;;;5.97;92.59;100366.13;1668329;86;26112;-68
2021/11/22 08:25:08;;;;;;;22.62;13.28;;;;;;;6.03;92.59;100376.29;1668255;86;25649;-68
2021/11/22 08:27:36;;;;;;;24.50;15.40;;;;;;;6.06;92.40;100378.42;1668306;86;27963;-68
2021/11/22 08:30:07;;;;;;;24.80;13.68;;;;;;;6.08;92.17;100385.66;1668140;86;25946;-68
2021/11/22 08:32:35;;;;;;;20.75;13.88;;;;;;;6.07;91.54;100382.18;1667165;84;25739;-68
2021/11/22 08:35:02;;;;;;;28.07;14.13;;;;;;;6.06;91.65;100389.99;1667922;86;25939;-68
2021/11/22 08:37:29;;;;;;;20.02;14.00;;;;;;;6.07;91.51;100390.78;1667877;86;25629;-68
2021/11/22 08:39:55;;;;;;;24.90;14.87;;;;;;;6.08;91.91;100386.48;1662053;85;27328;-68
2021/11/22 08:42:23;;;;;;;24.07;15.28;;;;;;;6.13;91.92;100389.66;1662142;86;25818;-68
2021/11/22 08:44:51;;;;;;;23.20;14.60;;;;;;;6.14;91.61;100386.70;1662177;86;25478;-68
2021/11/22 08:47:19;;;;;;;22.00;15.17;;;;;;;6.14;91.36;100392.08;1662476;86;26511;-68
2021/11/22 08:49:46;;;;;;;23.87;15.78;;;;;;;6.17;91.61;100390.73;1662221;86;25710;-68
2021/11/22 08:52:13;;;;;;;27.13;17.32;;;;;;;6.20;91.63;100390.70;1662171;86;27401;-69
2021/11/22 08:54:40;;;;;;;24.45;14.65;;;;;;;6.25;91.68;100393.36;1662158;86;25878;-69
2021/11/22 08:57:09;;;;;;;20.92;13.80;;;;;;;6.27;91.55;100393.36;1662296;86;25430;-70
2021/11/22 08:59:38;;;;;;;25.20;14.83;;;;;;;6.32;91.70;100399.25;1662395;86;25901;-70
2021/11/22 09:02:06;;;;;;;19.82;14.13;;;;;;;6.35;91.31;100405.39;1662977;85;25264;-69
2021/11/22 09:04:32;;;;;;;23.80;15.78;;;;;;;6.36;91.08;100403.77;1669437;85;27322;-69
2021/11/22 09:07:00;;;;;;;23.55;15.13;;;;;;;6.39;91.09;100404.33;1670114;84;25806;-68
2021/11/22 09:09:26;;;;;;;20.97;14.47;;;;;;;6.40;91.08;100403.22;1670256;85;25499;-68
2021/11/22 09:11:54;;;;;;;20.80;13.40;;;;;;;6.42;90.73;100413.15;1670172;85;26553;-68
2021/11/22 09:14:21;;;;;;;24.10;14.43;;;;;;;6.40;90.58;100405.91;1670241;85;25518;-68
2021/11/22 09:16:49;;;;;;;24.20;14.65;;;;;;;6.43;90.66;100412.88;1670357;85;28010;-67
2021/11/22 09:19:16;;;;;;;19.90;14.13;;;;;;;6.45;90.42;100413.94;1670144;85;25568;-68
2021/11/22 09:21:43;;;;;;;21.15;14.10;;;;;;;6.42;90.06;100419.86;1670207;85;25466;-68
2021/11/22 09:24:10;;;;;;;25.32;14.05;;;;;;;6.38;89.57;100414.80;1670185;85;26484;-68
2021/11/22 09:26:38;;;;;;;19.77;13.40;;;;;;;6.31;89.31;100416.44;1670248;85;25625;-68
2021/11/22 09:29:07;;;;;;;21.17;13.43;;;;;;;6.29;89.58;100421.30;1648986;85;27435;-69
2021/11/22 09:31:36;;;;;;;18.05;12.37;;;;;;;6.27;89.71;100428.28;1670377;84;25474;-69
2021/11/22 09:34:04;;;;;;;20.20;13.05;;;;;;;6.27;89.87;100425.59;1670206;85;25608;-68
2021/11/22 09:36:31;;;;;;;20.27;13.80;;;;;;;6.27;90.08;100427.48;1670172;85;25938;-69
2021/11/22 09:38:58;;;;;;;17.80;12.63;;;;;;;6.30;90.21;100425.57;1670156;85;25610;-69
2021/11/22 09:41:29;;;;;;;43.40;23.77;;;;;;;6.30;90.29;100427.73;1670258;85;27945;-68
2021/11/22 09:43:58;;;;;;;23.20;13.05;;;;;;;6.34;90.41;100426.64;1670183;84;25430;-67
2021/11/22 09:46:25;;;;;;;19.20;12.75;;;;;;;6.38;90.46;100420.96;1670687;85;25651;-68
2021/11/22 09:48:53;;;;;;;19.80;12.43;;;;;;;6.43;90.67;100429.55;1670077;84;28018;-68
2021/11/22 09:51:20;;;;;;;18.70;12.43;;;;;;;6.47;90.58;100424.69;1670251;84;25638;-68
2021/11/22 09:53:47;;;;;;;18.65;12.63;;;;;;;6.54;90.64;100428.41;1670170;85;27337;-69
2021/11/22 09:56:15;;;;;;;17.85;12.40;;;;;;;6.61;90.78;100431.59;1670181;84;25668;-68
2021/11/22 09:58:42;;;;;;;17.23;11.90;;;;;;;6.68;90.44;100432.63;1670900;85;25610;-70
2021/11/22 10:01:15;;;;;;;15.78;11.08;;;;;;;6.70;89.92;100436.63;1670605;84;26628;-69
2021/11/22 10:03:46;;;;;;;15.80;11.35;;;;;;;6.74;89.87;100443.58;1670568;84;25502;-69
2021/11/22 10:06:14;;;;;;;16.17;10.15;;;;;;;6.75;89.35;100445.20;1668476;84;28006;-68
2021/11/22 10:08:42;;;;;;;18.05;10.80;;;;;;;6.78;89.64;100441.95;1648668;85;25535;-67
2021/11/22 10:11:12;;;;;;;15.00;9.83;;;;;;;6.86;89.73;100441.89;1648891;85;25498;-67
2021/11/22 10:13:42;;;;;;;15.53;11.00;;;;;;;6.88;89.53;100437.85;1649033;85;25760;-67
2021/11/22 10:16:17;;;;;;;19.67;11.40;;;;;;;6.95;89.50;100438.88;1670357;85;25645;-68
2021/11/22 10:18:54;;;;;;;14.45;9.95;;;;;;;7.02;89.65;100447.98;1670203;85;27356;-68
2021/11/22 10:21:28;;;;;;;14.40;10.55;;;;;;;7.05;88.77;100445.52;1670290;85;25871;-68
2021/11/22 10:24:03;;;;;;;17.27;10.82;;;;;;;7.07;88.91;100448.73;1671193;85;25497;-68
2021/11/22 10:26:49;;;;;;;14.07;10.35;;;;;;;7.13;88.56;100452.17;1670584;83;25938;-68
2021/11/22 10:29:31;;;;;;;17.12;10.23;;;;;;;7.16;88.47;100455.65;1670763;85;25408;-65
2021/11/22 10:32:04;;;;;;;15.43;10.05;;;;;;;7.19;88.48;100456.98;1670545;84;27355;-66
2021/11/22 10:34:38;;;;;;;13.90;10.40;;;;;;;7.22;88.06;100453.19;1670344;84;25497;-65
2021/11/22 10:37:08;;;;;;;17.90;11.57;;;;;;;7.27;87.62;100459.87;1670454;85;25575;-64
2021/11/22 10:39:35;;;;;;;16.12;11.65;;;;;;;7.29;87.40;100460.94;1670207;85;25963;-65
2021/11/22 10:42:03;;;;;;;17.90;11.88;;;;;;;7.28;87.39;100457.42;1670448;85;25439;-65
2021/11/22 10:44:33;;;;;;;18.87;12.28;;;;;;;7.32;87.38;100464.41;1668333;86;27390;-65
2021/11/22 10:47:14;;;;;;;16.93;12.07;;;;;;;7.37;87.13;100462.20;1668486;86;25558;-65
2021/11/22 10:49:43;;;;;;;18.82;12.60;;;;;;;7.39;87.28;100466.22;1611585;89;25764;-65
2021/11/22 10:52:37;;;;;;;19.15;11.88;;;;;;;7.47;87.12;100466.96;1611365;86;26157;-65
2021/11/22 10:55:12;;;;;;;18.10;11.18;;;;;;;7.50;86.64;100464.78;1589806;88;25515;-65
2021/11/22 10:57:48;;;;;;;15.10;9.83;;;;;;;7.57;86.88;100455.27;1611613;89;27925;-66
2021/11/22 11:00:25;;;;;;;14.75;9.45;;;;;;;7.64;86.40;100458.45;1590270;89;25785;-65
2021/11/22 11:02:55;;;;;;;13.43;10.00;;;;;;;7.67;85.93;100464.59;1611656;89;25688;-65
2021/11/22 11:05:37;;;;;;;16.70;9.50;;;;;;;7.72;85.62;100460.26;1611484;87;25936;-64
2021/11/22 11:08:11;;;;;;;17.73;10.55;;;;;;;7.75;85.87;100463.18;1611906;87;25696;-63
2021/11/22 11:10:39;;;;;;;14.63;10.78;;;;;;;7.80;85.71;100465.81;1616079;88;27324;-64
2021/11/22 11:13:07;;;;;;;16.07;10.50;;;;;;;7.82;85.02;100466.88;1618368;85;25694;-64
2021/11/22 11:15:33;;;;;;;14.18;10.23;;;;;;;7.82;84.95;100471.71;1648943;85;25631;-66
2021/11/22 11:18:04;;;;;;;15.93;11.18;;;;;;;7.86;84.93;100467.90;1670085;85;26506;-65
2021/11/22 11:20:30;;;;;;;20.60;11.15;;;;;;;7.91;84.76;100471.88;1670229;85;25413;-65
2021/11/22 11:22:58;;;;;;;13.00;8.98;;;;;;;7.97;84.59;100474.00;1670067;85;27356;-65
2021/11/22 11:25:28;;;;;;;11.88;9.08;;;;;;;7.99;84.19;100479.34;1670029;85;25409;-66